createdAt,value
2023-03-06T00:00:57.230Z,69.62
2023-03-06T00:07:08.779Z,73.93
2023-03-06T00:13:20.261Z,73.45
2023-03-06T00:19:29.737Z,70.64
2023-03-06T00:25:32.253Z,73.00
2023-03-06T00:31:35.740Z,72.15
2023-03-06T00:37:38.214Z,70.59
2023-03-06T00:43:40.649Z,71.23
2023-03-06T00:49:43.090Z,73.36
2023-03-06T00:55:46.588Z,71.59
2023-03-06T01:01:53.266Z,70.85
2023-03-06T01:07:55.536Z,69.41
2023-03-06T01:13:57.980Z,68.88
2023-03-06T01:20:00.486Z,68.23
2023-03-06T01:26:02.926Z,67.90
2023-03-06T01:32:05.563Z,67.99
2023-03-06T01:38:07.807Z,67.80
2023-03-06T01:44:14.295Z,68.40
2023-03-06T01:50:17.803Z,69.02
2023-03-06T01:56:21.309Z,69.54
2023-03-06T02:02:23.777Z,69.65
2023-03-06T02:08:36.606Z,69.79
2023-03-06T02:14:49.973Z,69.61
2023-03-06T02:21:00.246Z,69.26
2023-03-06T02:27:04.724Z,69.00
2023-03-06T02:33:09.926Z,68.64
2023-03-06T02:39:15.705Z,68.44
2023-03-06T02:45:41.201Z,68.17
2023-03-06T02:51:43.732Z,68.02
2023-03-06T02:57:46.174Z,68.09
2023-03-06T03:03:49.681Z,67.89
2023-03-06T03:09:52.078Z,67.97
2023-03-06T03:16:03.632Z,67.09
2023-03-06T03:22:06.095Z,67.21
2023-03-06T03:28:08.463Z,65.00
2023-03-06T03:34:10.381Z,64.58
2023-03-06T03:40:12.712Z,65.19
2023-03-06T03:46:15.886Z,64.30
2023-03-06T03:52:18.292Z,64.26
2023-03-06T03:58:20.421Z,64.01
2023-03-06T04:04:23.260Z,65.10
2023-03-06T04:10:25.675Z,64.49
2023-03-06T04:16:31.909Z,64.83
2023-03-06T04:22:34.592Z,64.65
2023-03-06T04:28:38.022Z,64.92
2023-03-06T04:34:41.890Z,64.49
2023-03-06T04:40:50.608Z,64.70
2023-03-06T04:46:59.016Z,64.46
2023-03-06T04:53:02.949Z,67.33
2023-03-06T04:59:09.791Z,66.75
2023-03-06T05:05:12.939Z,67.00
2023-03-06T05:11:15.322Z,65.79
2023-03-06T05:17:17.836Z,65.57
2023-03-06T05:23:20.257Z,65.29
2023-03-06T05:29:23.752Z,65.79
2023-03-06T05:35:26.245Z,65.66
2023-03-06T05:41:29.704Z,68.26
2023-03-06T05:47:34.111Z,66.27
2023-03-06T05:53:36.607Z,69.43
2023-03-06T05:59:39.106Z,66.47
2023-03-06T06:05:46.654Z,65.62
2023-03-06T06:11:54.110Z,66.45
2023-03-06T06:17:58.527Z,65.58
2023-03-06T06:24:01.011Z,66.54
2023-03-06T06:30:07.136Z,65.98
2023-03-06T06:36:23.375Z,65.04
2023-03-06T06:42:39.030Z,63.97
2023-03-06T06:48:41.980Z,66.07
2023-03-06T06:54:44.506Z,67.00
2023-03-06T07:00:48.887Z,65.04
2023-03-06T07:06:52.393Z,61.40
2023-03-06T07:12:55.798Z,62.00
2023-03-06T07:18:58.617Z,61.17
2023-03-06T07:25:01.826Z,60.77
2023-03-06T07:31:13.671Z,57.90
2023-03-06T07:37:28.037Z,57.29
2023-03-06T07:44:00.814Z,54.39
2023-03-06T07:50:21.903Z,53.38
2023-03-06T07:56:32.643Z,52.39
2023-03-06T08:02:38.953Z,53.26
2023-03-06T08:08:43.372Z,53.52
2023-03-06T08:21:16.437Z,53.74
2023-03-06T08:27:22.756Z,50.92
2023-03-06T08:33:30.378Z,51.12
2023-03-06T08:39:37.786Z,51.81
2023-03-06T08:45:41.359Z,50.56
2023-03-06T08:51:52.177Z,50.94
2023-03-06T08:57:57.455Z,50.35
2023-03-06T09:04:56.332Z,49.75
2023-03-06T09:10:47.256Z,50.36
2023-03-06T09:16:49.833Z,50.68
2023-03-06T09:23:05.276Z,51.01
2023-03-06T09:29:12.408Z,49.92
2023-03-06T09:35:15.352Z,50.15
2023-03-06T09:41:38.320Z,49.02
2023-03-06T09:48:08.016Z,48.79
2023-03-06T09:54:24.816Z,48.26
2023-03-06T10:01:03.408Z,49.14
2023-03-06T10:07:49.055Z,48.38
2023-03-06T10:13:56.514Z,47.55
2023-03-06T10:20:14.232Z,46.75
2023-03-06T10:26:40.345Z,46.94
2023-03-06T10:39:23.677Z,45.76
2023-03-06T10:45:49.000Z,44.14
2023-03-06T10:52:50.914Z,44.80
2023-03-06T10:59:20.322Z,44.03
2023-03-06T11:05:46.766Z,42.97
2023-03-06T11:12:09.765Z,43.48
2023-03-06T11:18:46.200Z,42.88
2023-03-06T11:24:54.550Z,41.76
2023-03-06T11:31:13.665Z,41.43
2023-03-06T11:37:43.733Z,41.55
2023-03-06T11:44:23.439Z,42.17
2023-03-06T11:50:38.501Z,41.98
2023-03-06T11:57:00.459Z,40.40
2023-03-06T12:03:21.052Z,41.51
2023-03-06T12:09:36.779Z,40.83
2023-03-06T12:16:09.318Z,39.38
2023-03-06T12:22:42.263Z,39.16
2023-03-06T12:29:10.264Z,38.21
2023-03-06T12:35:33.000Z,37.16
2023-03-06T12:41:48.299Z,36.42
2023-03-06T12:48:04.261Z,37.21
2023-03-06T12:54:09.967Z,36.00
2023-03-06T13:01:09.085Z,37.85
2023-03-06T13:07:23.618Z,37.66
2023-03-06T13:13:41.659Z,37.21
2023-03-06T13:19:44.574Z,37.40
2023-03-06T13:25:50.114Z,35.89
2023-03-06T13:32:13.511Z,36.32
2023-03-06T13:38:42.690Z,34.65
2023-03-06T13:45:30.861Z,35.72
2023-03-06T13:51:42.324Z,35.47
2023-03-06T13:58:04.915Z,35.98
2023-03-06T14:04:59.588Z,37.29
2023-03-06T14:11:12.193Z,36.83
2023-03-06T14:17:38.637Z,37.22
2023-03-06T14:23:49.339Z,38.12
2023-03-06T14:29:58.589Z,36.93
2023-03-06T14:36:07.988Z,36.63
2023-03-06T14:42:27.616Z,37.38
2023-03-06T14:48:49.938Z,38.75
2023-03-06T14:54:52.638Z,39.12
2023-03-06T15:00:58.297Z,38.72
2023-03-06T15:07:00.610Z,40.21
2023-03-06T15:13:12.089Z,40.79
2023-03-06T15:19:22.532Z,41.44
2023-03-06T15:25:34.070Z,41.81
2023-03-06T15:31:45.656Z,42.37
2023-03-06T15:37:54.107Z,43.60
2023-03-06T15:44:22.175Z,43.09
2023-03-06T15:50:27.103Z,43.05
2023-03-06T15:56:32.629Z,43.46
2023-03-06T16:02:37.533Z,44.83
2023-03-06T16:08:39.352Z,45.50
2023-03-06T16:14:41.399Z,45.55
2023-03-06T16:20:44.403Z,48.34
2023-03-06T16:26:51.904Z,47.29
2023-03-06T16:32:54.329Z,47.01
2023-03-06T16:38:57.768Z,47.33
2023-03-06T16:45:02.768Z,47.79
2023-03-06T16:51:05.710Z,48.09
2023-03-06T16:57:17.214Z,48.08
2023-03-06T17:03:28.288Z,48.09
2023-03-06T17:09:31.145Z,48.48
2023-03-06T17:15:35.895Z,50.78
2023-03-06T17:21:45.818Z,49.04
2023-03-06T17:27:54.653Z,50.28
2023-03-06T17:34:01.139Z,49.84
2023-03-06T17:40:04.538Z,50.39
2023-03-06T17:46:13.114Z,49.94
2023-03-06T17:52:22.641Z,49.24
2023-03-06T17:58:26.083Z,49.22
2023-03-06T18:04:31.483Z,50.79
2023-03-06T18:10:33.939Z,51.72
2023-03-06T18:16:37.493Z,58.36
2023-03-06T18:22:39.853Z,55.33
2023-03-06T18:28:54.725Z,59.22
2023-03-06T18:35:04.262Z,55.46
2023-03-06T18:41:10.881Z,58.65
2023-03-06T18:47:14.859Z,60.23
2023-03-06T18:53:21.314Z,61.00
2023-03-06T18:59:30.132Z,57.76
2023-03-06T19:05:32.245Z,61.90
2023-03-06T19:11:35.716Z,57.43
2023-03-06T19:17:39.256Z,59.78
2023-03-06T19:23:45.646Z,57.38
2023-03-06T19:29:48.114Z,61.27
2023-03-06T19:35:50.728Z,59.96
2023-03-06T19:41:54.031Z,59.19
2023-03-06T19:48:01.546Z,60.61
2023-03-06T19:54:04.050Z,59.75
2023-03-06T20:00:13.518Z,58.78
2023-03-06T20:06:19.033Z,58.45
2023-03-06T20:12:21.484Z,58.51
2023-03-06T20:18:23.935Z,62.43
2023-03-06T20:24:28.479Z,60.97
2023-03-06T20:30:38.153Z,60.01
2023-03-06T20:36:41.328Z,58.79
2023-03-06T20:42:43.794Z,62.60
2023-03-06T20:48:49.656Z,60.04
2023-03-06T20:54:51.730Z,59.54
2023-03-06T21:00:54.161Z,59.99
2023-03-06T21:06:56.714Z,60.12
2023-03-06T21:13:06.246Z,59.38
2023-03-06T21:19:16.174Z,59.81
2023-03-06T21:25:18.135Z,60.37
2023-03-06T21:31:22.753Z,59.47
2023-03-06T21:37:25.058Z,59.13
2023-03-06T21:43:28.852Z,62.54
2023-03-06T21:49:30.961Z,59.96
2023-03-06T21:55:33.423Z,65.19
2023-03-06T22:01:35.905Z,68.49
2023-03-06T22:07:39.361Z,65.54
2023-03-06T22:13:45.582Z,64.92
2023-03-06T22:19:52.397Z,64.15
2023-03-06T22:26:01.916Z,63.63
2023-03-06T22:32:04.458Z,66.10
2023-03-06T22:38:06.778Z,65.47
2023-03-06T22:44:16.244Z,63.97
2023-03-06T22:50:28.081Z,61.77
2023-03-06T22:56:31.216Z,62.54
2023-03-06T23:02:35.119Z,62.22
2023-03-06T23:08:39.473Z,61.39
2023-03-06T23:14:41.686Z,62.29
2023-03-06T23:20:45.078Z,61.87
2023-03-06T23:26:49.842Z,62.76
2023-03-06T23:32:59.090Z,62.57
2023-03-06T23:39:01.511Z,62.46
2023-03-06T23:45:12.370Z,62.73
2023-03-06T23:51:18.508Z,61.38
2023-03-06T23:57:20.918Z,62.28
